EDT,Max TemperatureF,Mean TemperatureF,Min TemperatureF,Max Dew PointF,MeanDew PointF,Min DewpointF,Max Humidity, Mean Humidity, Min Humidity, Max Sea Level PressureIn, Mean Sea Level PressureIn, Min Sea Level PressureIn, Max VisibilityMiles, Mean VisibilityMiles, Min VisibilityMiles, Max Wind SpeedMPH, Mean Wind SpeedMPH, Max Gust SpeedMPH,PrecipitationIn, CloudCover, Events, WindDirDegrees
2013-10-1,74,62,50,63,58,49,97,83,61,29.99,29.95,29.91,10,9,2,16,5,24,0.00,2,,206
2013-10-2,78,64,50,63,49,30,99,65,18,30.10,30.04,29.93,10,9,0,9,4,,0.00,0,Fog,263
2013-10-3,81,64,48,65,58,48,97,79,55,30.07,29.99,29.91,10,10,7,10,3,17,0.00,3,,185
2013-10-4,79,72,64,68,65,63,98,85,62,30.05,29.99,29.92,10,9,4,10,3,,0.00,5,Rain,245
2013-10-5,75,68,62,69,65,62,100,93,78,30.05,29.98,29.85,10,7,2,9,3,,0.00,7,Rain,104
2013-10-6,71,62,54,69,62,53,97,91,75,29.84,29.74,29.67,10,8,2,15,7,21,0.00,6,Rain,197
2013-10-7,62,54,47,54,47,41,97,80,47,30.10,29.82,29.68,10,10,3,17,8,25,0.00,4,Rain,239
2013-10-8,69,54,40,49,43,40,100,68,35,30.27,30.22,30.10,10,10,4,10,3,,0.00,0,,162
2013-10-9,71,57,43,51,46,41,99,71,35,30.32,30.26,30.21,10,10,2,9,4,,0.00,0,,140
2013-10-10,72,56,39,58,44,36,100,76,27,30.24,30.19,30.13,10,8,0,7,1,,0.00,1,Fog,127
2013-10-11,73,56,38,50,43,36,100,73,26,30.16,30.12,30.07,10,9,1,7,1,,0.00,0,,112
2013-10-12,79,62,46,56,50,44,99,69,30,30.10,30.07,30.01,10,9,3,13,3,18,0.00,0,,148
2013-10-13,66,55,43,61,46,38,95,68,36,30.37,30.26,30.09,10,10,7,12,5,18,0.00,1,,281
2013-10-14,62,50,38,47,40,32,99,73,33,30.43,30.36,30.28,10,9,1,9,2,,0.00,0,,41
2013-10-15,66,52,37,61,50,38,100,89,67,30.28,30.03,29.81,10,8,2,14,3,20,0.00,3,Rain,148
2013-10-16,62,57,52,61,51,46,96,86,70,29.89,29.83,29.79,10,9,5,13,8,22,0.00,6,Rain,222
2013-10-17,52,48,44,52,49,44,99,96,92,29.88,29.82,29.73,10,6,2,13,4,16,0.00,8,Rain,207
2013-10-18,63,53,43,44,42,36,97,76,37,29.90,29.86,29.81,10,9,5,16,6,24,0.00,2,,214
2013-10-19,54,48,41,45,40,33,95,81,46,29.87,29.79,29.72,10,9,4,15,7,23,0.00,6,Rain,225
2013-10-20,57,48,40,43,40,35,96,73,46,29.89,29.83,29.77,10,10,3,16,7,22,0.00,5,,198
2013-10-21,57,50,42,50,42,32,95,74,52,29.84,29.81,29.77,10,10,5,17,11,25,0.00,8,Rain,226
2013-10-22,50,42,34,34,30,27,77,62,45,29.89,29.86,29.84,10,10,10,17,9,24,0.00,6,,249
2013-10-23,46,39,32,36,31,25,93,73,44,29.92,29.87,29.82,10,10,10,15,5,18,0.00,5,,283
2013-10-24,48,40,31,35,32,29,99,80,47,30.16,30.01,29.91,10,10,7,15,7,22,0.00,4,Rain,258
2013-10-25,48,40,32,35,30,25,99,71,46,30.31,30.20,30.02,10,10,10,18,8,24,0.00,3,,238
2013-10-26,51,46,37,43,31,26,88,60,46,30.01,29.84,29.72,10,10,3,21,13,30,0.00,7,Rain,242
2013-10-27,53,42,32,34,31,29,92,68,41,30.04,29.99,29.94,10,10,10,13,5,20,0.00,3,,229
2013-10-28,47,40,32,38,33,29,96,72,58,30.41,30.25,30.03,10,10,10,12,3,17,0.00,6,,27
2013-10-29,48,43,38,35,32,29,84,69,58,30.45,30.37,30.23,10,10,10,8,4,,0.00,6,,63
2013-10-30,64,48,31,52,40,31,100,77,47,30.23,30.11,29.93,10,8,2,10,2,17,0.00,2,Rain,143
2013-10-31,62,58,54,62,59,52,99,96,91,29.92,29.53,29.10,10,6,3,15,10,25,0.00,8,Rain,177